sensor_id;sensor_type;location;lat;lon;timestamp;temperature;humidity
9849;DHT22;4963;51.444;6.528;2022-11-14T00:01:35;6.50;99.90
9849;DHT22;4963;51.444;6.528;2022-11-14T00:04:02;6.50;99.90
9849;DHT22;4963;51.444;6.528;2022-11-14T00:06:29;6.50;99.90
9849;DHT22;4963;51.444;6.528;2022-11-14T00:08:56;6.50;99.90
9849;DHT22;4963;51.444;6.528;2022-11-14T00:11:24;6.40;99.90
9849;DHT22;4963;51.444;6.528;2022-11-14T00:13:51;6.40;99.90
9849;DHT22;4963;51.444;6.528;2022-11-14T00:16:17;6.40;99.90
9849;DHT22;4963;51.444;6.528;2022-11-14T00:18:44;6.30;99.90
9849;DHT22;4963;51.444;6.528;2022-11-14T00:21:11;6.30;99.90
9849;DHT22;4963;51.444;6.528;2022-11-14T00:23:38;6.30;99.90
9849;DHT22;4963;51.444;6.528;2022-11-14T00:26:05;6.20;99.90
9849;DHT22;4963;51.444;6.528;2022-11-14T00:28:33;6.30;99.90
9849;DHT22;4963;51.444;6.528;2022-11-14T00:30:59;6.30;99.90
9849;DHT22;4963;51.444;6.528;2022-11-14T00:33:26;6.20;99.90
9849;DHT22;4963;51.444;6.528;2022-11-14T00:35:54;6.20;99.90
9849;DHT22;4963;51.444;6.528;2022-11-14T00:38:22;6.20;99.90
9849;DHT22;4963;51.444;6.528;2022-11-14T00:40:49;6.20;99.90
9849;DHT22;4963;51.444;6.528;2022-11-14T00:43:16;6.30;99.90
9849;DHT22;4963;51.444;6.528;2022-11-14T00:45:44;6.20;99.90
9849;DHT22;4963;51.444;6.528;2022-11-14T00:48:11;6.20;99.90
9849;DHT22;4963;51.444;6.528;2022-11-14T00:50:38;6.20;99.90
9849;DHT22;4963;51.444;6.528;2022-11-14T00:53:05;6.20;99.90
9849;DHT22;4963;51.444;6.528;2022-11-14T00:55:32;6.20;99.90
9849;DHT22;4963;51.444;6.528;2022-11-14T00:57:59;6.20;99.90
9849;DHT22;4963;51.444;6.528;2022-11-14T01:00:26;6.20;99.90
9849;DHT22;4963;51.444;6.528;2022-11-14T01:02:54;6.20;99.90
9849;DHT22;4963;51.444;6.528;2022-11-14T01:05:22;6.20;99.90
9849;DHT22;4963;51.444;6.528;2022-11-14T01:07:49;6.10;99.90
9849;DHT22;4963;51.444;6.528;2022-11-14T01:10:17;6.10;99.90
9849;DHT22;4963;51.444;6.528;2022-11-14T01:12:44;6.20;99.90
9849;DHT22;4963;51.444;6.528;2022-11-14T01:15:10;6.10;99.90
9849;DHT22;4963;51.444;6.528;2022-11-14T01:17:37;6.10;99.90
9849;DHT22;4963;51.444;6.528;2022-11-14T01:20:06;6.10;99.90
9849;DHT22;4963;51.444;6.528;2022-11-14T01:22:33;6.10;99.90
9849;DHT22;4963;51.444;6.528;2022-11-14T01:24:59;6.00;99.90
9849;DHT22;4963;51.444;6.528;2022-11-14T01:27:29;6.00;99.90
9849;DHT22;4963;51.444;6.528;2022-11-14T01:29:56;6.00;99.90
9849;DHT22;4963;51.444;6.528;2022-11-14T01:32:24;5.90;99.90
9849;DHT22;4963;51.444;6.528;2022-11-14T01:34:51;5.90;99.90
9849;DHT22;4963;51.444;6.528;2022-11-14T01:37:19;5.80;99.90
9849;DHT22;4963;51.444;6.528;2022-11-14T01:39:45;5.80;99.90
9849;DHT22;4963;51.444;6.528;2022-11-14T01:42:12;5.80;99.90
9849;DHT22;4963;51.444;6.528;2022-11-14T01:44:47;5.70;99.90
9849;DHT22;4963;51.444;6.528;2022-11-14T01:47:17;5.70;99.90
9849;DHT22;4963;51.444;6.528;2022-11-14T01:49:47;5.70;99.90
9849;DHT22;4963;51.444;6.528;2022-11-14T01:52:19;5.70;99.90
9849;DHT22;4963;51.444;6.528;2022-11-14T01:54:49;5.70;99.90
9849;DHT22;4963;51.444;6.528;2022-11-14T01:57:20;5.70;99.90
9849;DHT22;4963;51.444;6.528;2022-11-14T01:59:51;5.70;99.90
9849;DHT22;4963;51.444;6.528;2022-11-14T02:02:21;5.60;99.90
9849;DHT22;4963;51.444;6.528;2022-11-14T02:04:50;5.60;99.90
9849;DHT22;4963;51.444;6.528;2022-11-14T02:07:21;5.60;99.90
9849;DHT22;4963;51.444;6.528;2022-11-14T02:09:49;5.60;99.90
9849;DHT22;4963;51.444;6.528;2022-11-14T02:12:17;5.60;99.90
9849;DHT22;4963;51.444;6.528;2022-11-14T02:14:47;5.50;99.90
9849;DHT22;4963;51.444;6.528;2022-11-14T02:17:15;5.50;99.90
9849;DHT22;4963;51.444;6.528;2022-11-14T02:19:44;5.50;99.90
9849;DHT22;4963;51.444;6.528;2022-11-14T02:22:14;5.50;99.90
9849;DHT22;4963;51.444;6.528;2022-11-14T02:24:42;5.50;99.90
9849;DHT22;4963;51.444;6.528;2022-11-14T02:27:09;5.50;99.90
9849;DHT22;4963;51.444;6.528;2022-11-14T02:29:37;5.40;99.90
9849;DHT22;4963;51.444;6.528;2022-11-14T02:32:05;5.40;99.90
9849;DHT22;4963;51.444;6.528;2022-11-14T02:34:32;5.40;99.90
9849;DHT22;4963;51.444;6.528;2022-11-14T02:36:59;5.40;99.90
9849;DHT22;4963;51.444;6.528;2022-11-14T02:39:27;5.30;99.90
9849;DHT22;4963;51.444;6.528;2022-11-14T02:41:54;5.40;99.90
9849;DHT22;4963;51.444;6.528;2022-11-14T02:44:20;5.40;99.90
9849;DHT22;4963;51.444;6.528;2022-11-14T02:46:47;5.40;99.90
9849;DHT22;4963;51.444;6.528;2022-11-14T02:49:14;5.30;99.90
9849;DHT22;4963;51.444;6.528;2022-11-14T02:51:41;5.30;99.90
9849;DHT22;4963;51.444;6.528;2022-11-14T02:54:07;5.30;99.90
9849;DHT22;4963;51.444;6.528;2022-11-14T02:56:36;5.20;99.90
9849;DHT22;4963;51.444;6.528;2022-11-14T02:59:02;5.20;99.90
9849;DHT22;4963;51.444;6.528;2022-11-14T03:01:29;5.20;99.90
9849;DHT22;4963;51.444;6.528;2022-11-14T03:03:56;5.20;99.90
9849;DHT22;4963;51.444;6.528;2022-11-14T03:06:23;5.20;99.90
9849;DHT22;4963;51.444;6.528;2022-11-14T03:08:49;5.20;99.90
9849;DHT22;4963;51.444;6.528;2022-11-14T03:11:16;5.20;99.90
9849;DHT22;4963;51.444;6.528;2022-11-14T03:13:44;5.20;99.90
9849;DHT22;4963;51.444;6.528;2022-11-14T03:16:12;5.10;99.90
9849;DHT22;4963;51.444;6.528;2022-11-14T03:18:39;5.10;99.90
9849;DHT22;4963;51.444;6.528;2022-11-14T03:21:07;5.00;99.90
9849;DHT22;4963;51.444;6.528;2022-11-14T03:23:35;5.00;99.90
9849;DHT22;4963;51.444;6.528;2022-11-14T03:26:04;5.00;99.90
9849;DHT22;4963;51.444;6.528;2022-11-14T03:28:31;5.00;99.90
9849;DHT22;4963;51.444;6.528;2022-11-14T03:30:59;4.90;99.90
9849;DHT22;4963;51.444;6.528;2022-11-14T03:33:26;5.00;99.90
9849;DHT22;4963;51.444;6.528;2022-11-14T03:35:53;5.00;99.90
9849;DHT22;4963;51.444;6.528;2022-11-14T03:38:20;5.00;99.90
9849;DHT22;4963;51.444;6.528;2022-11-14T03:40:47;5.00;99.90
9849;DHT22;4963;51.444;6.528;2022-11-14T03:43:14;5.00;99.90
9849;DHT22;4963;51.444;6.528;2022-11-14T03:45:41;5.00;99.90
9849;DHT22;4963;51.444;6.528;2022-11-14T03:48:09;5.00;99.90
9849;DHT22;4963;51.444;6.528;2022-11-14T03:50:36;5.00;99.90
9849;DHT22;4963;51.444;6.528;2022-11-14T03:53:03;5.00;99.90
9849;DHT22;4963;51.444;6.528;2022-11-14T03:55:30;4.90;99.90
9849;DHT22;4963;51.444;6.528;2022-11-14T03:57:57;4.90;99.90
9849;DHT22;4963;51.444;6.528;2022-11-14T04:00:23;4.90;99.90
9849;DHT22;4963;51.444;6.528;2022-11-14T04:02:53;4.80;99.90
9849;DHT22;4963;51.444;6.528;2022-11-14T04:05:21;4.80;99.90
9849;DHT22;4963;51.444;6.528;2022-11-14T04:07:48;4.80;99.90
9849;DHT22;4963;51.444;6.528;2022-11-14T04:10:15;4.80;99.90
9849;DHT22;4963;51.444;6.528;2022-11-14T04:12:46;4.80;99.90
9849;DHT22;4963;51.444;6.528;2022-11-14T04:15:13;4.80;99.90
9849;DHT22;4963;51.444;6.528;2022-11-14T04:17:40;4.80;99.90
9849;DHT22;4963;51.444;6.528;2022-11-14T04:20:07;4.80;99.90
9849;DHT22;4963;51.444;6.528;2022-11-14T04:22:35;4.80;99.90
9849;DHT22;4963;51.444;6.528;2022-11-14T04:25:02;4.70;99.90
9849;DHT22;4963;51.444;6.528;2022-11-14T04:27:29;4.70;99.90
9849;DHT22;4963;51.444;6.528;2022-11-14T04:29:56;4.80;99.90
9849;DHT22;4963;51.444;6.528;2022-11-14T04:32:23;4.80;99.90
9849;DHT22;4963;51.444;6.528;2022-11-14T04:34:49;4.70;99.90
9849;DHT22;4963;51.444;6.528;2022-11-14T04:37:16;4.70;99.90
9849;DHT22;4963;51.444;6.528;2022-11-14T04:39:44;4.70;99.90
9849;DHT22;4963;51.444;6.528;2022-11-14T04:42:11;4.70;99.90
9849;DHT22;4963;51.444;6.528;2022-11-14T04:44:38;4.70;99.90
9849;DHT22;4963;51.444;6.528;2022-11-14T04:47:05;4.70;99.90
9849;DHT22;4963;51.444;6.528;2022-11-14T04:49:31;4.70;99.90
9849;DHT22;4963;51.444;6.528;2022-11-14T04:51:58;4.70;99.90
9849;DHT22;4963;51.444;6.528;2022-11-14T04:54:25;4.70;99.90
9849;DHT22;4963;51.444;6.528;2022-11-14T04:56:53;4.70;99.90
9849;DHT22;4963;51.444;6.528;2022-11-14T04:59:20;4.70;99.90
9849;DHT22;4963;51.444;6.528;2022-11-14T05:01:46;4.60;99.90
9849;DHT22;4963;51.444;6.528;2022-11-14T05:04:13;4.70;99.90
9849;DHT22;4963;51.444;6.528;2022-11-14T05:06:40;4.70;99.90
9849;DHT22;4963;51.444;6.528;2022-11-14T05:09:07;4.70;99.90
9849;DHT22;4963;51.444;6.528;2022-11-14T05:11:34;4.70;99.90
9849;DHT22;4963;51.444;6.528;2022-11-14T05:14:02;4.70;99.90
9849;DHT22;4963;51.444;6.528;2022-11-14T05:16:29;4.60;99.90
9849;DHT22;4963;51.444;6.528;2022-11-14T05:18:56;4.70;99.90
9849;DHT22;4963;51.444;6.528;2022-11-14T05:21:22;4.60;99.90
9849;DHT22;4963;51.444;6.528;2022-11-14T05:23:49;4.60;99.90
9849;DHT22;4963;51.444;6.528;2022-11-14T05:26:17;4.60;99.90
9849;DHT22;4963;51.444;6.528;2022-11-14T05:28:44;4.60;99.90
9849;DHT22;4963;51.444;6.528;2022-11-14T05:31:13;4.50;99.90
9849;DHT22;4963;51.444;6.528;2022-11-14T05:33:42;4.50;99.90
9849;DHT22;4963;51.444;6.528;2022-11-14T05:36:11;4.50;99.90
9849;DHT22;4963;51.444;6.528;2022-11-14T05:38:38;4.50;99.90
9849;DHT22;4963;51.444;6.528;2022-11-14T05:41:05;4.30;99.90
9849;DHT22;4963;51.444;6.528;2022-11-14T05:43:32;4.50;99.90
9849;DHT22;4963;51.444;6.528;2022-11-14T05:46:00;4.40;99.90
9849;DHT22;4963;51.444;6.528;2022-11-14T05:48:29;4.40;99.90
9849;DHT22;4963;51.444;6.528;2022-11-14T05:50:56;4.40;99.90
9849;DHT22;4963;51.444;6.528;2022-11-14T05:53:24;4.40;99.90
9849;DHT22;4963;51.444;6.528;2022-11-14T05:55:51;4.30;99.90
9849;DHT22;4963;51.444;6.528;2022-11-14T05:58:18;4.30;99.90
9849;DHT22;4963;51.444;6.528;2022-11-14T06:00:45;4.30;99.90
9849;DHT22;4963;51.444;6.528;2022-11-14T06:03:11;4.20;99.90
9849;DHT22;4963;51.444;6.528;2022-11-14T06:05:40;4.30;99.90
9849;DHT22;4963;51.444;6.528;2022-11-14T06:08:07;4.30;99.90
9849;DHT22;4963;51.444;6.528;2022-11-14T06:10:34;4.20;99.90
9849;DHT22;4963;51.444;6.528;2022-11-14T06:13:01;4.20;99.90
9849;DHT22;4963;51.444;6.528;2022-11-14T06:15:28;4.20;99.90
9849;DHT22;4963;51.444;6.528;2022-11-14T06:17:54;4.10;99.90
9849;DHT22;4963;51.444;6.528;2022-11-14T06:20:22;4.10;99.90
9849;DHT22;4963;51.444;6.528;2022-11-14T06:22:52;4.10;99.90
9849;DHT22;4963;51.444;6.528;2022-11-14T06:25:19;4.10;99.90
9849;DHT22;4963;51.444;6.528;2022-11-14T06:27:46;4.10;99.90
9849;DHT22;4963;51.444;6.528;2022-11-14T06:30:13;4.20;99.90
9849;DHT22;4963;51.444;6.528;2022-11-14T06:32:40;4.20;99.90
9849;DHT22;4963;51.444;6.528;2022-11-14T06:35:07;4.20;99.90
9849;DHT22;4963;51.444;6.528;2022-11-14T06:37:34;4.20;99.90
9849;DHT22;4963;51.444;6.528;2022-11-14T06:40:03;4.20;99.90
9849;DHT22;4963;51.444;6.528;2022-11-14T06:42:30;4.20;99.90
9849;DHT22;4963;51.444;6.528;2022-11-14T06:44:57;4.20;99.90
9849;DHT22;4963;51.444;6.528;2022-11-14T06:47:24;4.20;99.90
9849;DHT22;4963;51.444;6.528;2022-11-14T06:49:50;4.20;99.90
9849;DHT22;4963;51.444;6.528;2022-11-14T06:52:17;4.10;99.90
9849;DHT22;4963;51.444;6.528;2022-11-14T06:54:44;4.10;99.90
9849;DHT22;4963;51.444;6.528;2022-11-14T06:57:12;4.10;99.90
9849;DHT22;4963;51.444;6.528;2022-11-14T06:59:39;4.10;99.90
9849;DHT22;4963;51.444;6.528;2022-11-14T07:02:05;4.10;99.90
9849;DHT22;4963;51.444;6.528;2022-11-14T07:04:32;4.00;99.90
9849;DHT22;4963;51.444;6.528;2022-11-14T07:06:59;4.00;99.90
9849;DHT22;4963;51.444;6.528;2022-11-14T07:09:26;4.00;99.90
9849;DHT22;4963;51.444;6.528;2022-11-14T07:11:53;4.00;99.90
9849;DHT22;4963;51.444;6.528;2022-11-14T07:14:21;4.00;99.90
9849;DHT22;4963;51.444;6.528;2022-11-14T07:16:47;4.00;99.90
9849;DHT22;4963;51.444;6.528;2022-11-14T07:19:14;4.00;99.90
9849;DHT22;4963;51.444;6.528;2022-11-14T07:21:41;4.10;99.90
9849;DHT22;4963;51.444;6.528;2022-11-14T07:24:08;4.10;99.90
9849;DHT22;4963;51.444;6.528;2022-11-14T07:26:35;4.10;99.90
9849;DHT22;4963;51.444;6.528;2022-11-14T07:29:01;4.10;99.90
9849;DHT22;4963;51.444;6.528;2022-11-14T07:31:30;4.10;99.90
9849;DHT22;4963;51.444;6.528;2022-11-14T07:33:56;4.20;99.90
9849;DHT22;4963;51.444;6.528;2022-11-14T07:36:23;4.20;99.90
9849;DHT22;4963;51.444;6.528;2022-11-14T07:38:50;4.20;99.90
9849;DHT22;4963;51.444;6.528;2022-11-14T07:41:17;4.30;99.90
9849;DHT22;4963;51.444;6.528;2022-11-14T07:43:44;4.30;99.90
9849;DHT22;4963;51.444;6.528;2022-11-14T07:46:13;4.30;99.90
9849;DHT22;4963;51.444;6.528;2022-11-14T07:48:41;4.40;99.90
9849;DHT22;4963;51.444;6.528;2022-11-14T07:51:14;4.40;99.90
9849;DHT22;4963;51.444;6.528;2022-11-14T07:53:41;4.60;99.90
9849;DHT22;4963;51.444;6.528;2022-11-14T07:56:09;4.70;99.90
9849;DHT22;4963;51.444;6.528;2022-11-14T07:58:36;4.90;99.90
9849;DHT22;4963;51.444;6.528;2022-11-14T08:01:05;5.00;99.90
9849;DHT22;4963;51.444;6.528;2022-11-14T08:03:32;5.10;99.90
9849;DHT22;4963;51.444;6.528;2022-11-14T08:06:02;5.20;99.90
9849;DHT22;4963;51.444;6.528;2022-11-14T08:08:29;5.30;99.90
9849;DHT22;4963;51.444;6.528;2022-11-14T08:10:56;5.40;99.90
9849;DHT22;4963;51.444;6.528;2022-11-14T08:13:23;5.40;99.90
9849;DHT22;4963;51.444;6.528;2022-11-14T08:15:50;5.50;99.90
9849;DHT22;4963;51.444;6.528;2022-11-14T08:18:17;5.50;99.90
9849;DHT22;4963;51.444;6.528;2022-11-14T08:20:44;5.50;99.90
9849;DHT22;4963;51.444;6.528;2022-11-14T08:23:13;5.50;99.90
9849;DHT22;4963;51.444;6.528;2022-11-14T08:25:40;5.50;99.90
9849;DHT22;4963;51.444;6.528;2022-11-14T08:28:07;5.60;99.90
9849;DHT22;4963;51.444;6.528;2022-11-14T08:30:34;5.70;99.90
9849;DHT22;4963;51.444;6.528;2022-11-14T08:33:01;5.70;99.90
9849;DHT22;4963;51.444;6.528;2022-11-14T08:35:28;5.80;99.90
9849;DHT22;4963;51.444;6.528;2022-11-14T08:37:55;5.80;99.90
9849;DHT22;4963;51.444;6.528;2022-11-14T08:40:23;5.90;99.90
9849;DHT22;4963;51.444;6.528;2022-11-14T08:42:50;5.90;99.90
9849;DHT22;4963;51.444;6.528;2022-11-14T08:45:17;6.00;99.90
9849;DHT22;4963;51.444;6.528;2022-11-14T08:47:49;6.10;99.90
9849;DHT22;4963;51.444;6.528;2022-11-14T08:50:16;6.10;99.90
9849;DHT22;4963;51.444;6.528;2022-11-14T08:52:48;6.20;99.90
9849;DHT22;4963;51.444;6.528;2022-11-14T08:55:15;6.30;99.90
9849;DHT22;4963;51.444;6.528;2022-11-14T08:57:43;6.40;99.90
9849;DHT22;4963;51.444;6.528;2022-11-14T09:00:11;6.40;99.90
9849;DHT22;4963;51.444;6.528;2022-11-14T09:02:37;6.50;99.90
9849;DHT22;4963;51.444;6.528;2022-11-14T09:05:06;6.60;99.90
9849;DHT22;4963;51.444;6.528;2022-11-14T09:07:32;6.70;99.90
9849;DHT22;4963;51.444;6.528;2022-11-14T09:09:59;6.70;99.90
9849;DHT22;4963;51.444;6.528;2022-11-14T09:12:26;6.80;99.90
9849;DHT22;4963;51.444;6.528;2022-11-14T09:14:54;6.80;99.90
9849;DHT22;4963;51.444;6.528;2022-11-14T09:17:21;6.90;99.90
9849;DHT22;4963;51.444;6.528;2022-11-14T09:19:48;6.90;99.90
9849;DHT22;4963;51.444;6.528;2022-11-14T09:22:15;6.90;99.90
9849;DHT22;4963;51.444;6.528;2022-11-14T09:24:43;7.00;99.90
9849;DHT22;4963;51.444;6.528;2022-11-14T09:27:11;7.00;99.90
9849;DHT22;4963;51.444;6.528;2022-11-14T09:29:38;7.10;99.90
9849;DHT22;4963;51.444;6.528;2022-11-14T09:32:06;7.10;99.90
9849;DHT22;4963;51.444;6.528;2022-11-14T09:34:34;7.20;99.90
9849;DHT22;4963;51.444;6.528;2022-11-14T09:37:01;7.20;99.90
9849;DHT22;4963;51.444;6.528;2022-11-14T09:39:28;7.20;99.90
9849;DHT22;4963;51.444;6.528;2022-11-14T09:42:04;7.20;99.90
9849;DHT22;4963;51.444;6.528;2022-11-14T09:44:49;7.20;99.90
9849;DHT22;4963;51.444;6.528;2022-11-14T09:47:23;7.20;99.90
9849;DHT22;4963;51.444;6.528;2022-11-14T09:49:54;7.20;99.90
9849;DHT22;4963;51.444;6.528;2022-11-14T09:52:28;7.20;99.90
9849;DHT22;4963;51.444;6.528;2022-11-14T09:54:58;7.20;99.90
9849;DHT22;4963;51.444;6.528;2022-11-14T09:57:27;7.20;99.90
9849;DHT22;4963;51.444;6.528;2022-11-14T09:59:54;7.20;99.90
9849;DHT22;4963;51.444;6.528;2022-11-14T10:02:36;7.20;99.90
9849;DHT22;4963;51.444;6.528;2022-11-14T10:05:27;7.20;99.90
9849;DHT22;4963;51.444;6.528;2022-11-14T10:08:13;7.20;99.90
9849;DHT22;4963;51.444;6.528;2022-11-14T10:10:50;7.30;99.90
9849;DHT22;4963;51.444;6.528;2022-11-14T10:13:29;7.40;99.90
9849;DHT22;4963;51.444;6.528;2022-11-14T10:16:03;7.40;99.90
9849;DHT22;4963;51.444;6.528;2022-11-14T10:18:46;7.40;99.90
9849;DHT22;4963;51.444;6.528;2022-11-14T10:21:32;7.50;99.90
9849;DHT22;4963;51.444;6.528;2022-11-14T10:24:08;7.40;99.90
9849;DHT22;4963;51.444;6.528;2022-11-14T10:26:46;7.50;99.90
9849;DHT22;4963;51.444;6.528;2022-11-14T10:32:39;7.50;99.90
9849;DHT22;4963;51.444;6.528;2022-11-14T10:35:12;7.40;99.90
9849;DHT22;4963;51.444;6.528;2022-11-14T10:37:45;7.40;99.90
9849;DHT22;4963;51.444;6.528;2022-11-14T10:40:21;7.40;99.90
9849;DHT22;4963;51.444;6.528;2022-11-14T10:42:50;7.40;99.90
9849;DHT22;4963;51.444;6.528;2022-11-14T10:45:23;7.40;99.90
9849;DHT22;4963;51.444;6.528;2022-11-14T10:47:53;7.40;99.90
9849;DHT22;4963;51.444;6.528;2022-11-14T10:50:26;7.30;99.90
9849;DHT22;4963;51.444;6.528;2022-11-14T10:52:57;7.30;99.90
9849;DHT22;4963;51.444;6.528;2022-11-14T10:55:26;7.30;99.90
9849;DHT22;4963;51.444;6.528;2022-11-14T10:57:53;7.30;99.90
9849;DHT22;4963;51.444;6.528;2022-11-14T11:00:21;7.30;99.90
9849;DHT22;4963;51.444;6.528;2022-11-14T11:02:50;7.40;99.90
9849;DHT22;4963;51.444;6.528;2022-11-14T11:05:19;7.40;99.90
9849;DHT22;4963;51.444;6.528;2022-11-14T11:07:48;7.40;99.90
9849;DHT22;4963;51.444;6.528;2022-11-14T11:10:34;7.50;99.90
9849;DHT22;4963;51.444;6.528;2022-11-14T11:13:30;7.40;99.90
9849;DHT22;4963;51.444;6.528;2022-11-14T11:15:59;7.50;99.90
9849;DHT22;4963;51.444;6.528;2022-11-14T11:18:28;7.50;99.90
9849;DHT22;4963;51.444;6.528;2022-11-14T11:21:04;7.50;99.90
9849;DHT22;4963;51.444;6.528;2022-11-14T11:23:33;7.50;99.90
9849;DHT22;4963;51.444;6.528;2022-11-14T11:26:02;7.60;99.90
9849;DHT22;4963;51.444;6.528;2022-11-14T11:28:33;7.50;99.90
9849;DHT22;4963;51.444;6.528;2022-11-14T11:31:01;7.60;99.90
9849;DHT22;4963;51.444;6.528;2022-11-14T11:33:29;7.60;99.90
9849;DHT22;4963;51.444;6.528;2022-11-14T11:35:59;7.70;99.90
9849;DHT22;4963;51.444;6.528;2022-11-14T11:38:28;7.70;99.90
9849;DHT22;4963;51.444;6.528;2022-11-14T11:41:04;7.70;99.90
9849;DHT22;4963;51.444;6.528;2022-11-14T11:43:38;7.70;99.90
9849;DHT22;4963;51.444;6.528;2022-11-14T11:46:12;7.70;99.90
9849;DHT22;4963;51.444;6.528;2022-11-14T11:48:41;7.80;99.90
9849;DHT22;4963;51.444;6.528;2022-11-14T11:51:14;8.00;99.90
9849;DHT22;4963;51.444;6.528;2022-11-14T11:53:47;7.90;99.90
9849;DHT22;4963;51.444;6.528;2022-11-14T11:56:21;7.90;99.90
9849;DHT22;4963;51.444;6.528;2022-11-14T11:58:52;8.00;99.90
9849;DHT22;4963;51.444;6.528;2022-11-14T12:01:20;8.00;99.90
9849;DHT22;4963;51.444;6.528;2022-11-14T12:03:48;8.00;99.90
9849;DHT22;4963;51.444;6.528;2022-11-14T12:06:17;8.10;99.90
9849;DHT22;4963;51.444;6.528;2022-11-14T12:09:00;8.10;99.90
9849;DHT22;4963;51.444;6.528;2022-11-14T12:11:32;8.20;99.90
9849;DHT22;4963;51.444;6.528;2022-11-14T12:14:11;8.20;99.90
9849;DHT22;4963;51.444;6.528;2022-11-14T12:17:03;8.30;99.90
9849;DHT22;4963;51.444;6.528;2022-11-14T12:19:55;8.30;99.90
9849;DHT22;4963;51.444;6.528;2022-11-14T12:23:01;8.30;99.90
9849;DHT22;4963;51.444;6.528;2022-11-14T12:28:33;8.30;99.90
9849;DHT22;4963;51.444;6.528;2022-11-14T12:31:05;8.30;99.90
9849;DHT22;4963;51.444;6.528;2022-11-14T12:33:39;8.30;99.90
9849;DHT22;4963;51.444;6.528;2022-11-14T12:36:10;8.40;99.90
9849;DHT22;4963;51.444;6.528;2022-11-14T12:38:42;8.40;99.90
9849;DHT22;4963;51.444;6.528;2022-11-14T12:41:10;8.40;99.90
9849;DHT22;4963;51.444;6.528;2022-11-14T12:43:41;8.40;99.90
9849;DHT22;4963;51.444;6.528;2022-11-14T12:46:09;8.50;99.90
9849;DHT22;4963;51.444;6.528;2022-11-14T12:48:41;8.50;99.90
9849;DHT22;4963;51.444;6.528;2022-11-14T12:51:47;8.50;99.90
9849;DHT22;4963;51.444;6.528;2022-11-14T12:54:42;8.60;99.90
9849;DHT22;4963;51.444;6.528;2022-11-14T12:57:15;8.70;99.90
9849;DHT22;4963;51.444;6.528;2022-11-14T13:00:08;8.70;99.90
9849;DHT22;4963;51.444;6.528;2022-11-14T13:02:58;8.70;99.90
9849;DHT22;4963;51.444;6.528;2022-11-14T13:05:47;8.70;99.90
9849;DHT22;4963;51.444;6.528;2022-11-14T13:08:29;8.70;99.90
9849;DHT22;4963;51.444;6.528;2022-11-14T13:11:38;8.70;99.90
9849;DHT22;4963;51.444;6.528;2022-11-14T13:14:23;8.80;99.90
9849;DHT22;4963;51.444;6.528;2022-11-14T13:17:21;8.80;99.90
9849;DHT22;4963;51.444;6.528;2022-11-14T13:20:24;8.70;99.90
9849;DHT22;4963;51.444;6.528;2022-11-14T13:29:46;8.70;99.90
9849;DHT22;4963;51.444;6.528;2022-11-14T13:35:17;8.60;99.90
9849;DHT22;4963;51.444;6.528;2022-11-14T13:37:59;8.70;99.90
9849;DHT22;4963;51.444;6.528;2022-11-14T13:40:33;8.70;99.90
9849;DHT22;4963;51.444;6.528;2022-11-14T13:43:06;8.70;99.90
9849;DHT22;4963;51.444;6.528;2022-11-14T13:45:47;8.70;99.90
9849;DHT22;4963;51.444;6.528;2022-11-14T13:51:16;8.70;99.90
9849;DHT22;4963;51.444;6.528;2022-11-14T13:53:44;8.70;99.90
9849;DHT22;4963;51.444;6.528;2022-11-14T13:56:25;8.70;99.90
9849;DHT22;4963;51.444;6.528;2022-11-14T13:59:35;8.70;99.90
9849;DHT22;4963;51.444;6.528;2022-11-14T14:02:29;8.60;99.90
9849;DHT22;4963;51.444;6.528;2022-11-14T14:05:06;8.60;99.90
9849;DHT22;4963;51.444;6.528;2022-11-14T14:07:51;8.60;99.90
9849;DHT22;4963;51.444;6.528;2022-11-14T14:10:26;8.60;99.90
9849;DHT22;4963;51.444;6.528;2022-11-14T14:13:08;8.60;99.90
9849;DHT22;4963;51.444;6.528;2022-11-14T14:15:45;8.60;99.90
9849;DHT22;4963;51.444;6.528;2022-11-14T14:18:22;8.60;99.90
9849;DHT22;4963;51.444;6.528;2022-11-14T14:20:55;8.60;99.90
9849;DHT22;4963;51.444;6.528;2022-11-14T14:23:33;8.60;99.90
9849;DHT22;4963;51.444;6.528;2022-11-14T14:26:16;8.60;99.90
9849;DHT22;4963;51.444;6.528;2022-11-14T14:28:53;8.60;99.90
9849;DHT22;4963;51.444;6.528;2022-11-14T14:31:22;8.60;99.90
9849;DHT22;4963;51.444;6.528;2022-11-14T14:33:50;8.60;99.90
9849;DHT22;4963;51.444;6.528;2022-11-14T14:36:20;8.70;99.90
9849;DHT22;4963;51.444;6.528;2022-11-14T14:38:49;8.60;99.90
9849;DHT22;4963;51.444;6.528;2022-11-14T14:41:18;8.60;99.90
9849;DHT22;4963;51.444;6.528;2022-11-14T14:43:53;8.60;99.90
9849;DHT22;4963;51.444;6.528;2022-11-14T14:46:28;8.60;99.90
9849;DHT22;4963;51.444;6.528;2022-11-14T14:48:57;8.60;99.90
9849;DHT22;4963;51.444;6.528;2022-11-14T14:51:30;8.60;99.90
9849;DHT22;4963;51.444;6.528;2022-11-14T14:53:59;8.60;99.90
9849;DHT22;4963;51.444;6.528;2022-11-14T14:56:26;8.60;99.90
9849;DHT22;4963;51.444;6.528;2022-11-14T14:58:53;8.60;99.90
9849;DHT22;4963;51.444;6.528;2022-11-14T15:01:22;8.60;99.90
9849;DHT22;4963;51.444;6.528;2022-11-14T15:03:52;8.60;99.90
9849;DHT22;4963;51.444;6.528;2022-11-14T15:06:26;8.60;99.90
9849;DHT22;4963;51.444;6.528;2022-11-14T15:08:56;8.60;99.90
9849;DHT22;4963;51.444;6.528;2022-11-14T15:11:25;8.60;99.90
9849;DHT22;4963;51.444;6.528;2022-11-14T15:13:55;8.60;99.90
9849;DHT22;4963;51.444;6.528;2022-11-14T15:16:23;8.60;99.90
9849;DHT22;4963;51.444;6.528;2022-11-14T15:18:51;8.60;99.90
9849;DHT22;4963;51.444;6.528;2022-11-14T15:21:24;8.70;99.90
9849;DHT22;4963;51.444;6.528;2022-11-14T15:24:00;8.60;99.90
9849;DHT22;4963;51.444;6.528;2022-11-14T15:26:30;8.60;99.90
9849;DHT22;4963;51.444;6.528;2022-11-14T15:29:13;8.70;99.90
9849;DHT22;4963;51.444;6.528;2022-11-14T15:31:45;8.70;99.90
9849;DHT22;4963;51.444;6.528;2022-11-14T15:34:27;8.60;99.90
9849;DHT22;4963;51.444;6.528;2022-11-14T15:37:14;8.60;99.90
9849;DHT22;4963;51.444;6.528;2022-11-14T15:39:44;8.60;99.90
9849;DHT22;4963;51.444;6.528;2022-11-14T15:42:13;8.60;99.90
9849;DHT22;4963;51.444;6.528;2022-11-14T15:44:40;8.60;99.90
9849;DHT22;4963;51.444;6.528;2022-11-14T15:47:10;8.60;99.90
9849;DHT22;4963;51.444;6.528;2022-11-14T15:49:38;8.60;99.90
9849;DHT22;4963;51.444;6.528;2022-11-14T15:52:17;8.60;99.90
9849;DHT22;4963;51.444;6.528;2022-11-14T15:54:45;8.60;99.90
9849;DHT22;4963;51.444;6.528;2022-11-14T15:57:14;8.60;99.90
9849;DHT22;4963;51.444;6.528;2022-11-14T15:59:42;8.60;99.90
9849;DHT22;4963;51.444;6.528;2022-11-14T16:02:13;8.60;99.90
9849;DHT22;4963;51.444;6.528;2022-11-14T16:04:41;8.60;99.90
9849;DHT22;4963;51.444;6.528;2022-11-14T16:07:10;8.60;99.90
9849;DHT22;4963;51.444;6.528;2022-11-14T16:09:37;8.60;99.90
9849;DHT22;4963;51.444;6.528;2022-11-14T16:12:04;8.60;99.90
9849;DHT22;4963;51.444;6.528;2022-11-14T16:14:32;8.60;99.90
9849;DHT22;4963;51.444;6.528;2022-11-14T16:17:00;8.60;99.90
9849;DHT22;4963;51.444;6.528;2022-11-14T16:19:27;8.60;99.90
9849;DHT22;4963;51.444;6.528;2022-11-14T16:21:56;8.60;99.90
9849;DHT22;4963;51.444;6.528;2022-11-14T16:24:23;8.60;99.90
9849;DHT22;4963;51.444;6.528;2022-11-14T16:26:50;8.60;99.90
9849;DHT22;4963;51.444;6.528;2022-11-14T16:29:17;8.60;99.90
9849;DHT22;4963;51.444;6.528;2022-11-14T16:31:45;8.60;99.90
9849;DHT22;4963;51.444;6.528;2022-11-14T16:34:15;8.60;99.90
9849;DHT22;4963;51.444;6.528;2022-11-14T16:36:43;8.60;99.90
9849;DHT22;4963;51.444;6.528;2022-11-14T16:39:10;8.60;99.90
9849;DHT22;4963;51.444;6.528;2022-11-14T16:41:38;8.60;99.90
9849;DHT22;4963;51.444;6.528;2022-11-14T16:44:05;8.60;99.90
9849;DHT22;4963;51.444;6.528;2022-11-14T16:46:32;8.60;99.90
9849;DHT22;4963;51.444;6.528;2022-11-14T16:49:00;8.60;99.90
9849;DHT22;4963;51.444;6.528;2022-11-14T16:51:26;8.60;99.90
9849;DHT22;4963;51.444;6.528;2022-11-14T16:53:54;8.60;99.90
9849;DHT22;4963;51.444;6.528;2022-11-14T16:56:21;8.70;99.90